createdAt,value
2022-10-04T00:03:36.110Z,1.80
2022-10-04T00:23:35.820Z,2.10
2022-10-04T00:43:35.817Z,1.70
2022-10-04T01:03:35.299Z,1.50
2022-10-04T01:23:35.040Z,1.50
2022-10-04T01:43:34.776Z,3.20
2022-10-04T02:03:34.536Z,2.60
2022-10-04T02:23:34.245Z,2.60
2022-10-04T02:43:33.980Z,3.50
2022-10-04T03:03:33.737Z,3.70
2022-10-04T03:23:33.467Z,6.40
2022-10-04T03:43:33.178Z,6.90
2022-10-04T04:03:32.969Z,6.10
2022-10-04T04:23:32.651Z,10.50
2022-10-04T04:43:32.395Z,7.70
2022-10-04T05:03:32.108Z,7.20
2022-10-04T05:23:32.001Z,10.70
2022-10-04T05:43:31.574Z,7.30
2022-10-04T06:03:31.357Z,11.00
2022-10-04T06:23:31.045Z,9.40
2022-10-04T06:43:30.779Z,7.20
2022-10-04T07:03:30.517Z,8.90
2022-10-04T07:23:30.235Z,9.80
2022-10-04T07:43:29.954Z,9.90
2022-10-04T08:03:29.760Z,10.30
2022-10-04T08:23:29.400Z,13.60
2022-10-04T08:43:29.134Z,12.00
2022-10-04T09:03:28.888Z,7.90
2022-10-04T09:23:28.579Z,9.50
2022-10-04T09:43:28.307Z,7.80
2022-10-04T10:03:28.035Z,7.80
2022-10-04T10:23:27.800Z,4.50
2022-10-04T10:43:27.508Z,4.70
2022-10-04T11:03:31.851Z,4.10
2022-10-04T11:23:26.958Z,3.50
2022-10-04T11:43:26.702Z,3.30
2022-10-04T12:03:26.468Z,5.70
2022-10-04T12:23:26.121Z,5.70
2022-10-04T12:43:26.849Z,4.60
2022-10-04T13:03:25.637Z,4.10
2022-10-04T13:23:26.317Z,5.60
2022-10-04T13:43:25.045Z,4.90
2022-10-04T14:03:24.841Z,2.60
2022-10-04T14:23:24.532Z,3.70
2022-10-04T14:43:24.247Z,3.90
2022-10-04T15:03:23.991Z,3.90
2022-10-04T15:23:23.703Z,3.50
2022-10-04T15:43:23.429Z,3.10
2022-10-04T16:03:23.168Z,4.80
2022-10-04T16:23:22.857Z,4.20
2022-10-04T16:43:22.607Z,4.10
2022-10-04T17:03:22.339Z,4.10
2022-10-04T17:23:22.059Z,3.70
2022-10-04T17:43:21.785Z,6.10
2022-10-04T18:03:21.533Z,4.70
2022-10-04T18:23:21.232Z,5.70
2022-10-04T18:43:20.962Z,4.50
2022-10-04T19:03:20.760Z,6.80
2022-10-04T19:23:20.453Z,6.80
2022-10-04T19:43:20.184Z,5.40
2022-10-04T20:03:19.869Z,7.60
2022-10-04T20:23:19.615Z,7.70
2022-10-04T20:43:19.331Z,7.70
2022-10-04T21:03:19.117Z,6.10
2022-10-04T21:23:18.795Z,6.90
2022-10-04T21:43:18.536Z,8.90
2022-10-04T22:03:18.261Z,6.80
2022-10-04T22:23:17.985Z,7.70
2022-10-04T22:43:17.713Z,6.00
2022-10-04T23:03:17.494Z,8.10
2022-10-04T23:23:17.177Z,5.60
2022-10-04T23:43:16.931Z,8.20
